sensor_id;sensor_type;location;lat;lon;timestamp;temperature;humidity
48551;DHT22;34397;51.176;6.738;2023-07-13T00:02:08;19.20;46.30
48551;DHT22;34397;51.176;6.738;2023-07-13T00:04:40;19.20;46.80
48551;DHT22;34397;51.176;6.738;2023-07-13T00:07:12;19.20;46.60
48551;DHT22;34397;51.176;6.738;2023-07-13T00:09:45;19.10;46.70
48551;DHT22;34397;51.176;6.738;2023-07-13T00:12:27;19.10;46.70
48551;DHT22;34397;51.176;6.738;2023-07-13T00:15:02;19.10;46.90
48551;DHT22;34397;51.176;6.738;2023-07-13T00:17:35;19.10;47.10
48551;DHT22;34397;51.176;6.738;2023-07-13T00:20:09;19.00;47.20
48551;DHT22;34397;51.176;6.738;2023-07-13T00:22:41;19.00;47.30
48551;DHT22;34397;51.176;6.738;2023-07-13T00:25:13;19.00;47.40
48551;DHT22;34397;51.176;6.738;2023-07-13T00:27:48;19.00;47.60
48551;DHT22;34397;51.176;6.738;2023-07-13T00:30:20;18.90;47.50
48551;DHT22;34397;51.176;6.738;2023-07-13T00:32:52;18.90;47.60
48551;DHT22;34397;51.176;6.738;2023-07-13T00:35:25;18.90;47.50
48551;DHT22;34397;51.176;6.738;2023-07-13T00:37:57;18.90;47.80
48551;DHT22;34397;51.176;6.738;2023-07-13T00:40:29;18.80;47.70
48551;DHT22;34397;51.176;6.738;2023-07-13T00:43:04;18.80;47.80
48551;DHT22;34397;51.176;6.738;2023-07-13T00:48:53;18.70;48.20
48551;DHT22;34397;51.176;6.738;2023-07-13T00:51:30;18.70;48.30
48551;DHT22;34397;51.176;6.738;2023-07-13T00:54:06;18.60;48.50
48551;DHT22;34397;51.176;6.738;2023-07-13T00:56:43;18.60;48.50
48551;DHT22;34397;51.176;6.738;2023-07-13T00:59:18;18.50;49.50
48551;DHT22;34397;51.176;6.738;2023-07-13T01:01:52;18.40;49.00
48551;DHT22;34397;51.176;6.738;2023-07-13T01:04:24;18.40;49.00
48551;DHT22;34397;51.176;6.738;2023-07-13T01:06:56;18.40;49.00
48551;DHT22;34397;51.176;6.738;2023-07-13T01:09:28;18.30;49.00
48551;DHT22;34397;51.176;6.738;2023-07-13T01:12:00;18.30;49.40
48551;DHT22;34397;51.176;6.738;2023-07-13T01:14:33;18.20;49.60
48551;DHT22;34397;51.176;6.738;2023-07-13T01:17:05;18.20;49.90
48551;DHT22;34397;51.176;6.738;2023-07-13T01:19:38;18.20;50.00
48551;DHT22;34397;51.176;6.738;2023-07-13T01:22:14;18.10;50.20
48551;DHT22;34397;51.176;6.738;2023-07-13T01:24:48;18.10;50.50
48551;DHT22;34397;51.176;6.738;2023-07-13T01:27:22;18.00;50.50
48551;DHT22;34397;51.176;6.738;2023-07-13T01:29:55;18.00;50.70
48551;DHT22;34397;51.176;6.738;2023-07-13T01:32:32;17.90;50.70
48551;DHT22;34397;51.176;6.738;2023-07-13T01:35:04;17.80;50.90
48551;DHT22;34397;51.176;6.738;2023-07-13T01:37:38;17.80;51.10
48551;DHT22;34397;51.176;6.738;2023-07-13T01:40:10;17.80;51.30
48551;DHT22;34397;51.176;6.738;2023-07-13T01:42:43;17.80;51.30
48551;DHT22;34397;51.176;6.738;2023-07-13T01:45:15;17.70;51.40
48551;DHT22;34397;51.176;6.738;2023-07-13T01:47:47;17.70;51.50
48551;DHT22;34397;51.176;6.738;2023-07-13T01:50:19;17.70;51.60
48551;DHT22;34397;51.176;6.738;2023-07-13T01:52:52;17.70;51.70
48551;DHT22;34397;51.176;6.738;2023-07-13T01:55:24;17.70;51.70
48551;DHT22;34397;51.176;6.738;2023-07-13T01:57:56;17.70;51.70
48551;DHT22;34397;51.176;6.738;2023-07-13T02:00:29;17.70;51.70
48551;DHT22;34397;51.176;6.738;2023-07-13T02:03:01;17.70;51.80
48551;DHT22;34397;51.176;6.738;2023-07-13T02:05:32;17.70;51.50
48551;DHT22;34397;51.176;6.738;2023-07-13T02:08:05;17.70;51.70
48551;DHT22;34397;51.176;6.738;2023-07-13T02:10:37;17.70;51.80
48551;DHT22;34397;51.176;6.738;2023-07-13T02:13:10;17.70;52.00
48551;DHT22;34397;51.176;6.738;2023-07-13T02:15:42;17.70;52.10
48551;DHT22;34397;51.176;6.738;2023-07-13T02:18:13;17.70;52.00
48551;DHT22;34397;51.176;6.738;2023-07-13T02:20:47;17.70;52.00
48551;DHT22;34397;51.176;6.738;2023-07-13T02:23:20;17.70;52.10
48551;DHT22;34397;51.176;6.738;2023-07-13T02:25:54;17.70;52.30
48551;DHT22;34397;51.176;6.738;2023-07-13T02:28:27;17.60;52.40
48551;DHT22;34397;51.176;6.738;2023-07-13T02:31:05;17.60;52.40
48551;DHT22;34397;51.176;6.738;2023-07-13T02:33:37;17.60;52.60
48551;DHT22;34397;51.176;6.738;2023-07-13T02:36:09;17.60;52.60
48551;DHT22;34397;51.176;6.738;2023-07-13T02:38:42;17.50;52.60
48551;DHT22;34397;51.176;6.738;2023-07-13T02:41:14;17.50;52.80
48551;DHT22;34397;51.176;6.738;2023-07-13T02:43:46;17.50;52.80
48551;DHT22;34397;51.176;6.738;2023-07-13T02:46:18;17.50;53.00
48551;DHT22;34397;51.176;6.738;2023-07-13T02:48:50;17.50;53.10
48551;DHT22;34397;51.176;6.738;2023-07-13T02:51:23;17.50;53.00
48551;DHT22;34397;51.176;6.738;2023-07-13T02:53:57;17.50;53.10
48551;DHT22;34397;51.176;6.738;2023-07-13T02:56:30;17.40;53.40
48551;DHT22;34397;51.176;6.738;2023-07-13T02:59:03;17.40;53.50
48551;DHT22;34397;51.176;6.738;2023-07-13T03:01:35;17.40;53.50
48551;DHT22;34397;51.176;6.738;2023-07-13T03:04:07;17.40;53.50
48551;DHT22;34397;51.176;6.738;2023-07-13T03:06:39;17.40;53.60
48551;DHT22;34397;51.176;6.738;2023-07-13T03:09:12;17.30;53.60
48551;DHT22;34397;51.176;6.738;2023-07-13T03:11:44;17.30;53.70
48551;DHT22;34397;51.176;6.738;2023-07-13T03:14:16;17.30;53.90
48551;DHT22;34397;51.176;6.738;2023-07-13T03:16:47;17.30;53.90
48551;DHT22;34397;51.176;6.738;2023-07-13T03:19:19;17.20;54.10
48551;DHT22;34397;51.176;6.738;2023-07-13T03:21:52;17.20;54.20
48551;DHT22;34397;51.176;6.738;2023-07-13T03:24:25;17.20;54.30
48551;DHT22;34397;51.176;6.738;2023-07-13T03:26:57;17.10;54.40
48551;DHT22;34397;51.176;6.738;2023-07-13T03:29:29;17.10;54.40
48551;DHT22;34397;51.176;6.738;2023-07-13T03:32:01;17.10;54.50
48551;DHT22;34397;51.176;6.738;2023-07-13T03:34:32;17.10;54.60
48551;DHT22;34397;51.176;6.738;2023-07-13T03:37:05;17.10;54.70
48551;DHT22;34397;51.176;6.738;2023-07-13T03:39:38;17.00;54.80
48551;DHT22;34397;51.176;6.738;2023-07-13T03:42:10;17.00;54.20
48551;DHT22;34397;51.176;6.738;2023-07-13T03:44:42;17.00;54.70
48551;DHT22;34397;51.176;6.738;2023-07-13T03:47:16;17.00;54.80
48551;DHT22;34397;51.176;6.738;2023-07-13T03:49:48;17.00;54.90
48551;DHT22;34397;51.176;6.738;2023-07-13T03:52:19;17.00;55.10
48551;DHT22;34397;51.176;6.738;2023-07-13T03:54:53;17.00;55.10
48551;DHT22;34397;51.176;6.738;2023-07-13T03:57:26;16.90;55.50
48551;DHT22;34397;51.176;6.738;2023-07-13T03:59:58;16.90;55.40
48551;DHT22;34397;51.176;6.738;2023-07-13T04:02:30;16.90;55.40
48551;DHT22;34397;51.176;6.738;2023-07-13T04:05:02;16.90;55.30
48551;DHT22;34397;51.176;6.738;2023-07-13T04:07:34;16.90;55.70
48551;DHT22;34397;51.176;6.738;2023-07-13T04:10:08;16.80;55.70
48551;DHT22;34397;51.176;6.738;2023-07-13T04:12:40;16.90;55.70
48551;DHT22;34397;51.176;6.738;2023-07-13T04:15:12;16.90;55.50
48551;DHT22;34397;51.176;6.738;2023-07-13T04:17:44;16.90;55.70
48551;DHT22;34397;51.176;6.738;2023-07-13T04:20:16;16.90;55.40
48551;DHT22;34397;51.176;6.738;2023-07-13T04:22:50;16.90;55.50
48551;DHT22;34397;51.176;6.738;2023-07-13T04:25:24;17.00;55.70
48551;DHT22;34397;51.176;6.738;2023-07-13T04:27:56;17.00;55.60
48551;DHT22;34397;51.176;6.738;2023-07-13T04:30:28;17.00;55.60
48551;DHT22;34397;51.176;6.738;2023-07-13T04:33:00;17.00;55.60
48551;DHT22;34397;51.176;6.738;2023-07-13T04:35:32;17.00;55.80
48551;DHT22;34397;51.176;6.738;2023-07-13T04:38:04;17.00;55.70
48551;DHT22;34397;51.176;6.738;2023-07-13T04:40:37;17.00;55.90
48551;DHT22;34397;51.176;6.738;2023-07-13T04:43:09;17.00;56.10
48551;DHT22;34397;51.176;6.738;2023-07-13T04:45:41;17.00;56.00
48551;DHT22;34397;51.176;6.738;2023-07-13T04:48:13;17.00;56.10
48551;DHT22;34397;51.176;6.738;2023-07-13T04:50:45;17.00;56.20
48551;DHT22;34397;51.176;6.738;2023-07-13T04:53:17;17.00;56.40
48551;DHT22;34397;51.176;6.738;2023-07-13T04:55:50;17.00;56.30
48551;DHT22;34397;51.176;6.738;2023-07-13T04:58:23;17.00;56.60
48551;DHT22;34397;51.176;6.738;2023-07-13T05:00:59;17.00;56.60
48551;DHT22;34397;51.176;6.738;2023-07-13T05:03:31;17.00;57.00
48551;DHT22;34397;51.176;6.738;2023-07-13T05:06:05;17.00;56.80
48551;DHT22;34397;51.176;6.738;2023-07-13T05:08:38;17.00;56.90
48551;DHT22;34397;51.176;6.738;2023-07-13T05:11:11;17.00;57.00
48551;DHT22;34397;51.176;6.738;2023-07-13T05:13:42;17.00;57.10
48551;DHT22;34397;51.176;6.738;2023-07-13T05:16:14;17.00;57.50
48551;DHT22;34397;51.176;6.738;2023-07-13T05:18:46;17.00;58.00
48551;DHT22;34397;51.176;6.738;2023-07-13T05:21:18;17.00;57.40
48551;DHT22;34397;51.176;6.738;2023-07-13T05:23:50;17.00;57.90
48551;DHT22;34397;51.176;6.738;2023-07-13T05:26:23;17.10;57.80
48551;DHT22;34397;51.176;6.738;2023-07-13T05:28:55;17.10;57.90
48551;DHT22;34397;51.176;6.738;2023-07-13T05:31:26;17.10;57.80
48551;DHT22;34397;51.176;6.738;2023-07-13T05:33:58;17.20;57.90
48551;DHT22;34397;51.176;6.738;2023-07-13T05:36:30;17.10;58.00
48551;DHT22;34397;51.176;6.738;2023-07-13T05:39:03;17.10;58.30
48551;DHT22;34397;51.176;6.738;2023-07-13T05:41:36;17.20;58.30
48551;DHT22;34397;51.176;6.738;2023-07-13T05:44:08;17.20;58.40
48551;DHT22;34397;51.176;6.738;2023-07-13T05:46:40;17.20;58.50
48551;DHT22;34397;51.176;6.738;2023-07-13T05:49:12;17.20;58.70
48551;DHT22;34397;51.176;6.738;2023-07-13T05:51:44;17.20;58.90
48551;DHT22;34397;51.176;6.738;2023-07-13T05:54:15;17.20;59.00
48551;DHT22;34397;51.176;6.738;2023-07-13T05:56:49;17.20;59.30
48551;DHT22;34397;51.176;6.738;2023-07-13T05:59:20;17.20;59.30
48551;DHT22;34397;51.176;6.738;2023-07-13T06:01:52;17.20;59.20
48551;DHT22;34397;51.176;6.738;2023-07-13T06:04:24;17.20;59.70
48551;DHT22;34397;51.176;6.738;2023-07-13T06:06:56;17.20;59.60
48551;DHT22;34397;51.176;6.738;2023-07-13T06:09:28;17.20;59.60
48551;DHT22;34397;51.176;6.738;2023-07-13T06:12:01;17.20;59.40
48551;DHT22;34397;51.176;6.738;2023-07-13T06:14:33;17.30;59.90
48551;DHT22;34397;51.176;6.738;2023-07-13T06:17:05;17.40;59.30
48551;DHT22;34397;51.176;6.738;2023-07-13T06:19:37;17.40;59.70
48551;DHT22;34397;51.176;6.738;2023-07-13T06:22:09;17.40;59.40
48551;DHT22;34397;51.176;6.738;2023-07-13T06:24:41;17.40;59.80
48551;DHT22;34397;51.176;6.738;2023-07-13T06:27:14;17.40;60.00
48551;DHT22;34397;51.176;6.738;2023-07-13T06:29:46;17.30;60.10
48551;DHT22;34397;51.176;6.738;2023-07-13T06:32:18;17.30;60.30
48551;DHT22;34397;51.176;6.738;2023-07-13T06:34:50;17.30;60.20
48551;DHT22;34397;51.176;6.738;2023-07-13T06:37:22;17.30;60.70
48551;DHT22;34397;51.176;6.738;2023-07-13T06:39:54;17.30;59.90
48551;DHT22;34397;51.176;6.738;2023-07-13T06:42:28;17.50;59.80
48551;DHT22;34397;51.176;6.738;2023-07-13T06:44:59;17.60;59.30
48551;DHT22;34397;51.176;6.738;2023-07-13T06:47:31;17.80;58.90
48551;DHT22;34397;51.176;6.738;2023-07-13T06:50:04;18.00;58.00
48551;DHT22;34397;51.176;6.738;2023-07-13T06:52:36;18.20;57.70
48551;DHT22;34397;51.176;6.738;2023-07-13T06:55:08;18.30;57.50
48551;DHT22;34397;51.176;6.738;2023-07-13T06:57:41;18.50;57.70
48551;DHT22;34397;51.176;6.738;2023-07-13T07:00:14;18.50;57.70
48551;DHT22;34397;51.176;6.738;2023-07-13T07:02:46;18.50;57.50
48551;DHT22;34397;51.176;6.738;2023-07-13T07:05:18;18.60;57.20
48551;DHT22;34397;51.176;6.738;2023-07-13T07:07:53;18.60;56.90
48551;DHT22;34397;51.176;6.738;2023-07-13T07:10:26;18.70;56.80
48551;DHT22;34397;51.176;6.738;2023-07-13T07:13:00;18.80;56.50
48551;DHT22;34397;51.176;6.738;2023-07-13T07:15:34;18.80;56.20
48551;DHT22;34397;51.176;6.738;2023-07-13T07:18:06;18.90;56.20
48551;DHT22;34397;51.176;6.738;2023-07-13T07:20:37;19.00;56.10
48551;DHT22;34397;51.176;6.738;2023-07-13T07:23:09;19.10;56.00
48551;DHT22;34397;51.176;6.738;2023-07-13T07:25:43;19.10;55.90
48551;DHT22;34397;51.176;6.738;2023-07-13T07:28:17;19.10;56.00
48551;DHT22;34397;51.176;6.738;2023-07-13T07:30:53;19.20;56.00
48551;DHT22;34397;51.176;6.738;2023-07-13T07:33:25;19.20;56.20
48551;DHT22;34397;51.176;6.738;2023-07-13T07:35:57;19.30;56.00
48551;DHT22;34397;51.176;6.738;2023-07-13T07:38:29;19.40;55.70
48551;DHT22;34397;51.176;6.738;2023-07-13T07:41:02;19.50;55.40
48551;DHT22;34397;51.176;6.738;2023-07-13T07:43:36;19.60;55.40
48551;DHT22;34397;51.176;6.738;2023-07-13T07:46:08;19.70;55.00
48551;DHT22;34397;51.176;6.738;2023-07-13T07:48:40;19.70;54.70
48551;DHT22;34397;51.176;6.738;2023-07-13T07:51:12;19.70;54.60
48551;DHT22;34397;51.176;6.738;2023-07-13T07:53:44;19.70;54.80
48551;DHT22;34397;51.176;6.738;2023-07-13T07:56:15;19.60;54.90
48551;DHT22;34397;51.176;6.738;2023-07-13T07:58:49;19.60;55.00
48551;DHT22;34397;51.176;6.738;2023-07-13T08:01:21;19.60;55.10
48551;DHT22;34397;51.176;6.738;2023-07-13T08:03:53;19.70;55.00
48551;DHT22;34397;51.176;6.738;2023-07-13T08:06:24;19.80;54.50
48551;DHT22;34397;51.176;6.738;2023-07-13T08:08:56;19.90;54.80
48551;DHT22;34397;51.176;6.738;2023-07-13T08:11:28;20.00;54.60
48551;DHT22;34397;51.176;6.738;2023-07-13T08:14:02;20.10;54.60
48551;DHT22;34397;51.176;6.738;2023-07-13T08:16:33;20.20;54.70
48551;DHT22;34397;51.176;6.738;2023-07-13T08:19:05;20.30;54.70
48551;DHT22;34397;51.176;6.738;2023-07-13T08:21:37;20.40;54.00
48551;DHT22;34397;51.176;6.738;2023-07-13T08:24:09;20.40;53.90
48551;DHT22;34397;51.176;6.738;2023-07-13T08:26:41;20.50;54.00
48551;DHT22;34397;51.176;6.738;2023-07-13T08:29:14;20.60;53.70
48551;DHT22;34397;51.176;6.738;2023-07-13T08:31:46;20.70;53.30
48551;DHT22;34397;51.176;6.738;2023-07-13T08:34:18;20.80;53.50
48551;DHT22;34397;51.176;6.738;2023-07-13T08:36:51;20.80;53.40
48551;DHT22;34397;51.176;6.738;2023-07-13T08:39:22;20.90;53.60
48551;DHT22;34397;51.176;6.738;2023-07-13T08:41:58;21.00;53.00
48551;DHT22;34397;51.176;6.738;2023-07-13T08:44:39;21.00;53.50
48551;DHT22;34397;51.176;6.738;2023-07-13T08:47:15;21.00;52.90
48551;DHT22;34397;51.176;6.738;2023-07-13T08:49:48;21.00;53.60
48551;DHT22;34397;51.176;6.738;2023-07-13T08:52:26;21.10;52.90
48551;DHT22;34397;51.176;6.738;2023-07-13T08:55:08;21.10;53.10
48551;DHT22;34397;51.176;6.738;2023-07-13T08:57:47;21.20;52.70
48551;DHT22;34397;51.176;6.738;2023-07-13T09:00:25;21.30;52.30
48551;DHT22;34397;51.176;6.738;2023-07-13T09:03:07;21.30;52.40
48551;DHT22;34397;51.176;6.738;2023-07-13T09:05:52;21.40;52.10
48551;DHT22;34397;51.176;6.738;2023-07-13T09:08:46;21.50;51.80
48551;DHT22;34397;51.176;6.738;2023-07-13T09:11:30;21.50;51.80
48551;DHT22;34397;51.176;6.738;2023-07-13T09:14:36;21.60;51.50
48551;DHT22;34397;51.176;6.738;2023-07-13T09:17:17;21.60;51.20
48551;DHT22;34397;51.176;6.738;2023-07-13T09:19:54;21.70;51.20
48551;DHT22;34397;51.176;6.738;2023-07-13T09:22:32;21.60;50.80
48551;DHT22;34397;51.176;6.738;2023-07-13T09:25:18;21.60;50.70
48551;DHT22;34397;51.176;6.738;2023-07-13T09:27:58;21.60;51.70
48551;DHT22;34397;51.176;6.738;2023-07-13T09:30:36;21.70;50.80
48551;DHT22;34397;51.176;6.738;2023-07-13T09:33:11;21.70;50.70
48551;DHT22;34397;51.176;6.738;2023-07-13T09:35:44;21.70;50.70
48551;DHT22;34397;51.176;6.738;2023-07-13T09:38:19;21.80;50.20
48551;DHT22;34397;51.176;6.738;2023-07-13T09:41:02;21.80;50.20
48551;DHT22;34397;51.176;6.738;2023-07-13T09:43:39;21.90;50.30
48551;DHT22;34397;51.176;6.738;2023-07-13T09:46:46;21.90;49.70
48551;DHT22;34397;51.176;6.738;2023-07-13T09:49:24;21.90;50.00
48551;DHT22;34397;51.176;6.738;2023-07-13T09:51:58;21.90;50.70
48551;DHT22;34397;51.176;6.738;2023-07-13T09:54:34;21.90;49.90
48551;DHT22;34397;51.176;6.738;2023-07-13T09:57:13;21.90;49.70
48551;DHT22;34397;51.176;6.738;2023-07-13T09:59:48;21.90;49.60
48551;DHT22;34397;51.176;6.738;2023-07-13T10:02:26;21.90;49.70
48551;DHT22;34397;51.176;6.738;2023-07-13T10:05:02;21.90;49.80
48551;DHT22;34397;51.176;6.738;2023-07-13T10:07:39;22.00;50.60
48551;DHT22;34397;51.176;6.738;2023-07-13T10:10:16;22.10;49.90
48551;DHT22;34397;51.176;6.738;2023-07-13T10:12:50;22.20;49.20
48551;DHT22;34397;51.176;6.738;2023-07-13T10:15:24;22.30;48.80
48551;DHT22;34397;51.176;6.738;2023-07-13T10:17:57;22.30;48.60
48551;DHT22;34397;51.176;6.738;2023-07-13T10:20:30;22.40;48.60
48551;DHT22;34397;51.176;6.738;2023-07-13T10:23:05;22.40;49.00
48551;DHT22;34397;51.176;6.738;2023-07-13T10:25:43;22.40;48.80
48551;DHT22;34397;51.176;6.738;2023-07-13T10:28:25;22.40;49.70
48551;DHT22;34397;51.176;6.738;2023-07-13T10:31:01;22.40;48.80
48551;DHT22;34397;51.176;6.738;2023-07-13T10:33:33;22.50;48.50
48551;DHT22;34397;51.176;6.738;2023-07-13T10:36:13;22.50;48.50
48551;DHT22;34397;51.176;6.738;2023-07-13T10:38:50;22.50;48.30
48551;DHT22;34397;51.176;6.738;2023-07-13T10:41:24;22.50;48.50
48551;DHT22;34397;51.176;6.738;2023-07-13T10:43:58;22.60;48.30
48551;DHT22;34397;51.176;6.738;2023-07-13T10:46:30;22.60;47.80
48551;DHT22;34397;51.176;6.738;2023-07-13T10:49:05;22.70;48.70
48551;DHT22;34397;51.176;6.738;2023-07-13T10:51:41;22.80;47.90
48551;DHT22;34397;51.176;6.738;2023-07-13T10:54:18;22.70;47.60
48551;DHT22;34397;51.176;6.738;2023-07-13T10:57:08;22.70;47.40
48551;DHT22;34397;51.176;6.738;2023-07-13T10:59:48;22.70;47.60
48551;DHT22;34397;51.176;6.738;2023-07-13T11:02:25;22.70;47.20
48551;DHT22;34397;51.176;6.738;2023-07-13T11:05:17;22.60;47.50
48551;DHT22;34397;51.176;6.738;2023-07-13T11:08:03;22.60;47.40
48551;DHT22;34397;51.176;6.738;2023-07-13T11:10:50;22.50;47.40
48551;DHT22;34397;51.176;6.738;2023-07-13T11:13:39;22.50;47.70
48551;DHT22;34397;51.176;6.738;2023-07-13T11:16:44;22.50;48.20
48551;DHT22;34397;51.176;6.738;2023-07-13T11:22:24;22.50;47.70
48551;DHT22;34397;51.176;6.738;2023-07-13T11:25:02;22.50;47.80
48551;DHT22;34397;51.176;6.738;2023-07-13T11:28:11;22.50;48.30
48551;DHT22;34397;51.176;6.738;2023-07-13T11:30:48;22.70;48.40
48551;DHT22;34397;51.176;6.738;2023-07-13T11:33:23;22.90;47.70
48551;DHT22;34397;51.176;6.738;2023-07-13T11:36:03;23.00;46.90
48551;DHT22;34397;51.176;6.738;2023-07-13T11:38:38;23.10;46.40
48551;DHT22;34397;51.176;6.738;2023-07-13T11:41:17;23.10;46.70
48551;DHT22;34397;51.176;6.738;2023-07-13T11:43:52;23.30;47.10
48551;DHT22;34397;51.176;6.738;2023-07-13T11:46:27;23.60;46.80
48551;DHT22;34397;51.176;6.738;2023-07-13T11:48:59;24.00;45.60
48551;DHT22;34397;51.176;6.738;2023-07-13T11:51:31;24.40;44.20
48551;DHT22;34397;51.176;6.738;2023-07-13T11:54:06;24.70;45.40
48551;DHT22;34397;51.176;6.738;2023-07-13T11:56:50;25.00;43.30
48551;DHT22;34397;51.176;6.738;2023-07-13T11:59:22;25.20;42.90
48551;DHT22;34397;51.176;6.738;2023-07-13T12:01:54;25.30;42.70
48551;DHT22;34397;51.176;6.738;2023-07-13T12:04:28;25.40;42.50
48551;DHT22;34397;51.176;6.738;2023-07-13T12:07:07;25.50;42.60
48551;DHT22;34397;51.176;6.738;2023-07-13T12:09:47;25.70;41.30
48551;DHT22;34397;51.176;6.738;2023-07-13T12:12:27;25.70;41.40
48551;DHT22;34397;51.176;6.738;2023-07-13T12:15:00;25.70;41.10
48551;DHT22;34397;51.176;6.738;2023-07-13T12:17:36;25.60;41.20
48551;DHT22;34397;51.176;6.738;2023-07-13T12:20:17;25.60;41.40
48551;DHT22;34397;51.176;6.738;2023-07-13T12:22:52;25.50;42.20
48551;DHT22;34397;51.176;6.738;2023-07-13T12:25:25;25.40;40.60
48551;DHT22;34397;51.176;6.738;2023-07-13T12:27:58;25.50;41.20
48551;DHT22;34397;51.176;6.738;2023-07-13T12:30:32;25.60;40.30
48551;DHT22;34397;51.176;6.738;2023-07-13T12:33:08;25.80;40.20
48551;DHT22;34397;51.176;6.738;2023-07-13T12:35:46;26.00;40.10
48551;DHT22;34397;51.176;6.738;2023-07-13T12:38:20;26.10;39.60
48551;DHT22;34397;51.176;6.738;2023-07-13T12:40:52;26.30;39.10
48551;DHT22;34397;51.176;6.738;2023-07-13T12:43:36;26.40;39.10
48551;DHT22;34397;51.176;6.738;2023-07-13T12:46:18;26.40;39.00
48551;DHT22;34397;51.176;6.738;2023-07-13T12:48:53;26.30;38.80
48551;DHT22;34397;51.176;6.738;2023-07-13T12:51:26;26.30;39.80
48551;DHT22;34397;51.176;6.738;2023-07-13T12:54:07;26.50;39.00
48551;DHT22;34397;51.176;6.738;2023-07-13T12:56:45;26.50;38.90
48551;DHT22;34397;51.176;6.738;2023-07-13T12:59:23;26.60;38.70
48551;DHT22;34397;51.176;6.738;2023-07-13T13:01:59;26.60;38.90
48551;DHT22;34397;51.176;6.738;2023-07-13T13:04:33;26.50;39.00
48551;DHT22;34397;51.176;6.738;2023-07-13T13:07:05;26.50;38.60
48551;DHT22;34397;51.176;6.738;2023-07-13T13:09:40;26.50;38.80
48551;DHT22;34397;51.176;6.738;2023-07-13T13:12:11;26.60;38.40
48551;DHT22;34397;51.176;6.738;2023-07-13T13:14:44;26.60;38.70
48551;DHT22;34397;51.176;6.738;2023-07-13T13:17:21;26.70;38.40
48551;DHT22;34397;51.176;6.738;2023-07-13T13:19:55;26.80;38.50
48551;DHT22;34397;51.176;6.738;2023-07-13T13:22:27;26.80;37.80
48551;DHT22;34397;51.176;6.738;2023-07-13T13:24:59;26.80;38.10
48551;DHT22;34397;51.176;6.738;2023-07-13T13:27:31;26.80;38.60
48551;DHT22;34397;51.176;6.738;2023-07-13T13:30:05;26.70;37.50
48551;DHT22;34397;51.176;6.738;2023-07-13T13:32:45;26.50;38.40
48551;DHT22;34397;51.176;6.738;2023-07-13T13:35:20;26.40;38.40
48551;DHT22;34397;51.176;6.738;2023-07-13T13:37:52;26.20;38.50
48551;DHT22;34397;51.176;6.738;2023-07-13T13:40:23;26.00;39.10
48551;DHT22;34397;51.176;6.738;2023-07-13T13:42:57;25.90;39.10
48551;DHT22;34397;51.176;6.738;2023-07-13T13:45:30;25.70;39.50
48551;DHT22;34397;51.176;6.738;2023-07-13T13:48:03;25.60;39.40
48551;DHT22;34397;51.176;6.738;2023-07-13T13:50:36;25.70;39.60
48551;DHT22;34397;51.176;6.738;2023-07-13T13:53:10;25.70;39.60
48551;DHT22;34397;51.176;6.738;2023-07-13T13:55:43;25.60;39.60
48551;DHT22;34397;51.176;6.738;2023-07-13T13:58:15;25.50;39.60
48551;DHT22;34397;51.176;6.738;2023-07-13T14:00:48;25.50;39.80
48551;DHT22;34397;51.176;6.738;2023-07-13T14:03:21;25.40;40.30
48551;DHT22;34397;51.176;6.738;2023-07-13T14:05:54;25.40;39.80
48551;DHT22;34397;51.176;6.738;2023-07-13T14:08:27;25.40;40.80
48551;DHT22;34397;51.176;6.738;2023-07-13T14:10:59;25.50;40.70
48551;DHT22;34397;51.176;6.738;2023-07-13T14:13:32;25.60;39.90
48551;DHT22;34397;51.176;6.738;2023-07-13T14:16:11;25.70;40.50
48551;DHT22;34397;51.176;6.738;2023-07-13T14:18:45;25.70;39.80
48551;DHT22;34397;51.176;6.738;2023-07-13T14:21:18;25.80;40.10
48551;DHT22;34397;51.176;6.738;2023-07-13T14:23:51;25.80;40.60
48551;DHT22;34397;51.176;6.738;2023-07-13T14:26:24;25.80;39.40
48551;DHT22;34397;51.176;6.738;2023-07-13T14:28:57;25.90;39.30
48551;DHT22;34397;51.176;6.738;2023-07-13T14:31:30;26.00;38.60
48551;DHT22;34397;51.176;6.738;2023-07-13T14:34:02;25.80;37.50
48551;DHT22;34397;51.176;6.738;2023-07-13T14:36:37;25.70;38.50
48551;DHT22;34397;51.176;6.738;2023-07-13T14:39:13;25.60;38.80
48551;DHT22;34397;51.176;6.738;2023-07-13T14:41:51;25.50;39.30
48551;DHT22;34397;51.176;6.738;2023-07-13T14:44:25;25.40;39.60
48551;DHT22;34397;51.176;6.738;2023-07-13T14:47:03;25.20;39.70
48551;DHT22;34397;51.176;6.738;2023-07-13T14:49:38;25.00;40.40
48551;DHT22;34397;51.176;6.738;2023-07-13T14:52:14;24.80;43.00
48551;DHT22;34397;51.176;6.738;2023-07-13T14:54:47;24.60;44.10
48551;DHT22;34397;51.176;6.738;2023-07-13T14:57:20;24.30;46.20
48551;DHT22;34397;51.176;6.738;2023-07-13T14:59:52;23.90;46.50
48551;DHT22;34397;51.176;6.738;2023-07-13T15:02:27;23.60;48.00
48551;DHT22;34397;51.176;6.738;2023-07-13T15:05:02;23.30;51.80
48551;DHT22;34397;51.176;6.738;2023-07-13T15:07:39;23.10;50.60
48551;DHT22;34397;51.176;6.738;2023-07-13T15:10:16;22.90;50.50
48551;DHT22;34397;51.176;6.738;2023-07-13T15:12:51;22.70;51.00
48551;DHT22;34397;51.176;6.738;2023-07-13T15:15:23;22.60;51.30
48551;DHT22;34397;51.176;6.738;2023-07-13T15:17:57;22.50;51.80
48551;DHT22;34397;51.176;6.738;2023-07-13T15:20:31;22.40;51.40
48551;DHT22;34397;51.176;6.738;2023-07-13T15:23:04;22.30;54.00
48551;DHT22;34397;51.176;6.738;2023-07-13T15:25:36;22.20;52.10
48551;DHT22;34397;51.176;6.738;2023-07-13T15:28:09;22.10;52.20
48551;DHT22;34397;51.176;6.738;2023-07-13T15:30:44;22.10;52.70
48551;DHT22;34397;51.176;6.738;2023-07-13T15:33:21;22.10;53.00
48551;DHT22;34397;51.176;6.738;2023-07-13T15:35:55;22.00;55.00
48551;DHT22;34397;51.176;6.738;2023-07-13T15:38:30;21.90;53.50
48551;DHT22;34397;51.176;6.738;2023-07-13T15:41:10;21.90;52.70
48551;DHT22;34397;51.176;6.738;2023-07-13T15:43:48;21.90;52.50
48551;DHT22;34397;51.176;6.738;2023-07-13T15:46:22;21.90;52.70
48551;DHT22;34397;51.176;6.738;2023-07-13T15:48:57;21.80;52.80
48551;DHT22;34397;51.176;6.738;2023-07-13T15:51:30;21.80;53.40
48551;DHT22;34397;51.176;6.738;2023-07-13T15:54:05;21.80;53.00
48551;DHT22;34397;51.176;6.738;2023-07-13T15:56:40;21.90;52.20
48551;DHT22;34397;51.176;6.738;2023-07-13T15:59:12;21.90;52.10
48551;DHT22;34397;51.176;6.738;2023-07-13T16:01:44;21.90;52.30
48551;DHT22;34397;51.176;6.738;2023-07-13T16:04:18;21.80;52.10
48551;DHT22;34397;51.176;6.738;2023-07-13T16:06:50;21.80;51.60
48551;DHT22;34397;51.176;6.738;2023-07-13T16:09:23;21.90;51.70
48551;DHT22;34397;51.176;6.738;2023-07-13T16:11:56;21.80;51.40
48551;DHT22;34397;51.176;6.738;2023-07-13T16:14:28;21.80;51.50
48551;DHT22;34397;51.176;6.738;2023-07-13T16:17:00;21.80;51.50
48551;DHT22;34397;51.176;6.738;2023-07-13T16:19:33;21.90;51.10
48551;DHT22;34397;51.176;6.738;2023-07-13T16:22:08;21.80;51.20